^^
Your Local Weather - Clay, NY Station Historical Data
Daily Summary for August 15, 2017 Units:  English    Metric   Both
« Previous Day
Next Day »
Daily Weekly Monthly Yearly Custom
  High: Low: Average:
Temperature: 82.0 °F 61.7 °F 70.2 °F
Dew Point: 67.7 °F 58.5 °F 63.1 °F
Humidity: 93% 52% 80%
Wind Speed: 3.0mph 0.0mph 0.8mph
Wind Gust: 7.0mph - -
Wind- - WSW
Pressure: 29.88 in 29.79 in -
Precipitation: 0.00 in    
Historical Graphs
 
 
Tabular Data for August 15, 2017
Time Temperature Dew Point Pressure Wind Wind Speed Wind Gust Humidity Rainfall Rate (Hourly) solar
00:02 63.2 °F 58.6 °F 29.83 in Calm     85% 0.00 in 0 W/m2
00:08 63.1 °F 58.5 °F 29.83 in Calm     85% 0.00 in 0 W/m2
00:14 63.1 °F 58.8 °F 29.83 in Calm     86% 0.00 in 0 W/m2
00:20 63.1 °F 58.8 °F 29.83 in Calm     86% 0.00 in 0 W/m2
00:26 63.1 °F 59.2 °F 29.83 in Calm     87% 0.00 in 0 W/m2
00:32 63.1 °F 59.2 °F 29.83 in Calm     87% 0.00 in 0 W/m2
00:38 63.0 °F 59.4 °F 29.83 in Calm     88% 0.00 in 0 W/m2
00:44 62.8 °F 59.2 °F 29.83 in Calm     88% 0.00 in 0 W/m2
00:50 62.7 °F 59.4 °F 29.83 in Calm     89% 0.00 in 0 W/m2
00:56 62.5 °F 59.2 °F 29.83 in SSE 1.0 mph 1.0 mph 89% 0.00 in 0 W/m2
01:02 62.5 °F 59.2 °F 29.83 in Calm     89% 0.00 in 0 W/m2
01:08 62.4 °F 59.1 °F 29.83 in Calm     89% 0.00 in 0 W/m2
01:14 62.4 °F 59.1 °F 29.83 in Calm     89% 0.00 in 0 W/m2
01:20 62.3 °F 59.0 °F 29.83 in Calm     89% 0.00 in 0 W/m2
01:26 62.2 °F 58.9 °F 29.83 in Calm     89% 0.00 in 0 W/m2
01:32 62.2 °F 58.9 °F 29.83 in Calm     89% 0.00 in 0 W/m2
01:38 62.4 °F 59.1 °F 29.83 in Calm     89% 0.00 in 0 W/m2
01:44 62.5 °F 59.2 °F 29.83 in Calm     89% 0.00 in 0 W/m2
01:50 62.6 °F 59.3 °F 29.83 in Calm     89% 0.00 in 0 W/m2
01:56 62.7 °F 59.4 °F 29.82 in Calm     89% 0.00 in 0 W/m2
02:02 62.7 °F 59.4 °F 29.82 in Calm     89% 0.00 in 0 W/m2
02:08 62.7 °F 59.4 °F 29.82 in Calm     89% 0.00 in 0 W/m2
02:14 62.8 °F 59.5 °F 29.82 in Calm     89% 0.00 in 0 W/m2
02:20 62.8 °F 59.5 °F 29.82 in Calm     89% 0.00 in 0 W/m2
02:26 62.8 °F 59.5 °F 29.82 in Calm     89% 0.00 in 0 W/m2
02:32 62.9 °F 59.6 °F 29.82 in Calm     89% 0.00 in 0 W/m2
02:38 62.8 °F 59.5 °F 29.82 in Calm     89% 0.00 in 0 W/m2
02:44 62.7 °F 59.4 °F 29.82 in Calm     89% 0.00 in 0 W/m2
02:50 62.6 °F 59.3 °F 29.82 in Calm     89% 0.00 in 0 W/m2
02:56 62.5 °F 59.5 °F 29.82 in Calm     90% 0.00 in 0 W/m2
03:02 62.5 °F 59.5 °F 29.82 in Calm     90% 0.00 in 0 W/m2
03:08 62.4 °F 59.4 °F 29.82 in Calm     90% 0.00 in 0 W/m2
03:14 62.5 °F 59.5 °F 29.82 in Calm     90% 0.00 in 0 W/m2
03:20 62.4 °F 59.4 °F 29.82 in Calm     90% 0.00 in 0 W/m2
03:26 62.3 °F 59.3 °F 29.81 in Calm     90% 0.00 in 0 W/m2
03:32 62.4 °F 59.7 °F 29.81 in Calm     91% 0.00 in 0 W/m2
03:38 62.3 °F 59.6 °F 29.81 in Calm     91% 0.00 in 0 W/m2
03:44 62.3 °F 59.3 °F 29.81 in Calm     90% 0.00 in 0 W/m2
03:50 62.4 °F 59.7 °F 29.81 in Calm     91% 0.00 in 0 W/m2
03:56 63.2 °F 60.5 °F 29.81 in SW 1.0 mph 2.0 mph 91% 0.00 in 0 W/m2
04:02 63.1 °F 60.1 °F 29.81 in SW 1.0 mph 1.0 mph 90% 0.00 in 0 W/m2
04:08 63.1 °F 60.1 °F 29.81 in Calm   1.0 mph 90% 0.00 in 0 W/m2
04:14 62.8 °F 59.8 °F 29.80 in Calm     90% 0.00 in 0 W/m2
04:20 62.7 °F 59.7 °F 29.80 in Calm     90% 0.00 in 0 W/m2
04:26 62.8 °F 60.1 °F 29.80 in Calm     91% 0.00 in 0 W/m2
04:32 62.8 °F 60.1 °F 29.80 in Calm     91% 0.00 in 0 W/m2
04:38 62.9 °F 60.2 °F 29.80 in Calm     91% 0.00 in 0 W/m2
04:44 63.2 °F 60.5 °F 29.80 in Calm     91% 0.00 in 0 W/m2
04:50 63.0 °F 60.0 °F 29.80 in Calm     90% 0.00 in 0 W/m2
04:56 63.1 °F 60.4 °F 29.80 in Calm     91% 0.00 in 0 W/m2
05:02 62.8 °F 60.1 °F 29.80 in Calm     91% 0.00 in 0 W/m2
05:08 62.7 °F 60.0 °F 29.80 in Calm     91% 0.00 in 0 W/m2
05:14 62.7 °F 60.0 °F 29.80 in Calm     91% 0.00 in 0 W/m2
05:20 62.7 °F 60.0 °F 29.80 in Calm     91% 0.00 in 0 W/m2
05:26 62.6 °F 60.2 °F 29.81 in Calm     92% 0.00 in 0 W/m2
05:32 62.4 °F 59.7 °F 29.80 in Calm     91% 0.00 in 0 W/m2
05:38 62.3 °F 59.9 °F 29.81 in Calm     92% 0.00 in 0 W/m2
05:44 62.2 °F 59.8 °F 29.81 in Calm     92% 0.00 in 0 W/m2
05:50 62.1 °F 59.7 °F 29.81 in Calm     92% 0.00 in 0 W/m2
05:56 62.0 °F 59.6 °F 29.82 in Calm     92% 0.00 in 0 W/m2
06:00 62.0 °F 59.6 °F 29.82 in Calm     92% 0.00 in 0 W/m2
06:06 62.0 °F 59.6 °F 29.82 in Calm     92% 0.00 in 0 W/m2
06:12 62.0 °F 59.6 °F 29.82 in Calm     92% 0.00 in 0 W/m2
06:18 61.9 °F 59.5 °F 29.82 in Calm     92% 0.00 in 7 W/m2
06:24 61.8 °F 59.5 °F 29.82 in Calm     92% 0.00 in 11 W/m2
06:30 61.7 °F 59.4 °F 29.82 in Calm     92% 0.00 in 14 W/m2
06:36 61.7 °F 59.7 °F 29.82 in Calm     93% 0.00 in 19 W/m2
06:42 61.8 °F 59.8 °F 29.82 in Calm     93% 0.00 in 26 W/m2
06:46 61.8 °F 59.8 °F 29.82 in Calm     93% 0.00 in 28 W/m2
06:52 61.9 °F 59.9 °F 29.82 in Calm     93% 0.00 in 32 W/m2
06:58 62.1 °F 60.1 °F 29.82 in Calm     93% 0.00 in 46 W/m2
07:04 62.5 °F 60.4 °F 29.82 in Calm     93% 0.00 in 91 W/m2
07:10 63.3 °F 61.2 °F 29.82 in Calm     93% 0.00 in 105 W/m2
07:16 63.9 °F 61.8 °F 29.82 in Calm   2.0 mph 93% 0.00 in 120 W/m2
07:22 64.9 °F 62.8 °F 29.82 in Calm     93% 0.00 in 134 W/m2
07:28 65.7 °F 63.6 °F 29.82 in Calm     93% 0.00 in 149 W/m2
07:34 66.6 °F 63.9 °F 29.82 in Calm     91% 0.00 in 165 W/m2
07:40 67.6 °F 64.2 °F 29.82 in Calm     89% 0.00 in 183 W/m2
07:46 68.4 °F 64.4 °F 29.82 in Calm     87% 0.00 in 202 W/m2
07:52 69.4 °F 64.4 °F 29.82 in SW 1.0 mph 2.0 mph 84% 0.00 in 221 W/m2
07:58 70.0 °F 64.2 °F 29.82 in SSW 1.0 mph 3.0 mph 82% 0.00 in 167 W/m2
08:04 70.5 °F 64.4 °F 29.82 in SW 1.0 mph 3.0 mph 81% 0.00 in 127 W/m2
08:10 70.8 °F 64.3 °F 29.82 in SW 2.0 mph 2.0 mph 80% 0.00 in 83 W/m2
08:16 71.1 °F 64.3 °F 29.82 in SW 3.0 mph 3.0 mph 79% 0.00 in 118 W/m2
08:22 71.5 °F 64.6 °F 29.82 in SSW 2.0 mph 3.0 mph 79% 0.00 in 76 W/m2
08:28 71.9 °F 64.7 °F 29.82 in WSW 1.0 mph 4.0 mph 78% 0.00 in 70 W/m2
08:34 72.1 °F 64.5 °F 29.82 in SW 2.0 mph 3.0 mph 77% 0.00 in 88 W/m2
08:40 72.3 °F 65.1 °F 29.82 in South 1.0 mph 2.0 mph 78% 0.00 in 81 W/m2
08:46 72.5 °F 64.5 °F 29.82 in SSW 2.0 mph 4.0 mph 76% 0.00 in 376 W/m2
08:52 72.8 °F 64.8 °F 29.82 in WSW 3.0 mph 3.0 mph 76% 0.00 in 109 W/m2
08:58 73.2 °F 65.6 °F 29.82 in West 2.0 mph 3.0 mph 77% 0.00 in 95 W/m2
09:04 73.6 °F 65.6 °F 29.82 in Calm   1.0 mph 76% 0.00 in 250 W/m2
09:10 73.8 °F 65.8 °F 29.82 in SW 1.0 mph 1.0 mph 76% 0.00 in 260 W/m2
09:16 74.0 °F 65.2 °F 29.82 in WSW 2.0 mph 4.0 mph 74% 0.00 in 483 W/m2
09:22 74.4 °F 66.0 °F 29.82 in SW 2.0 mph 2.0 mph 75% 0.00 in 503 W/m2
09:28 75.0 °F 65.8 °F 29.82 in WSW 1.0 mph 2.0 mph 73% 0.00 in 519 W/m2
09:34 75.3 °F 66.0 °F 29.82 in WSW 1.0 mph 1.0 mph 73% 0.00 in 543 W/m2
09:40 75.9 °F 65.8 °F 29.82 in SW 1.0 mph 3.0 mph 71% 0.00 in 570 W/m2
09:46 75.9 °F 65.8 °F 29.83 in WSW 1.0 mph 3.0 mph 71% 0.00 in 587 W/m2
09:52 75.8 °F 65.3 °F 29.82 in SW 1.0 mph 1.0 mph 70% 0.00 in 584 W/m2
09:58 76.1 °F 66.0 °F 29.82 in WSW 1.0 mph 2.0 mph 71% 0.00 in 670 W/m2
10:04 76.6 °F 66.1 °F 29.82 in SW 1.0 mph 5.0 mph 70% 0.00 in 689 W/m2
10:10 76.4 °F 64.6 °F 29.82 in WSW 1.0 mph 1.0 mph 67% 0.00 in 214 W/m2
10:16 76.7 °F 65.8 °F 29.82 in WSW 1.0 mph 6.0 mph 69% 0.00 in 698 W/m2
10:22 77.5 °F 66.1 °F 29.82 in SW 1.0 mph 3.0 mph 68% 0.00 in 752 W/m2
10:28 77.9 °F 66.5 °F 29.82 in NW 1.0 mph 3.0 mph 68% 0.00 in 207 W/m2
10:34 77.4 °F 66.0 °F 29.82 in West 1.0 mph 1.0 mph 68% 0.00 in 800 W/m2
10:40 78.0 °F 65.7 °F 29.82 in NW 1.0 mph 2.0 mph 66% 0.00 in 868 W/m2
10:46 78.3 °F 66.0 °F 29.82 in WNW 1.0 mph 2.0 mph 66% 0.00 in 865 W/m2
10:52 78.0 °F 64.8 °F 29.82 in SW 1.0 mph 1.0 mph 64% 0.00 in 197 W/m2
10:58 77.4 °F 64.3 °F 29.82 in WSW 2.0 mph 3.0 mph 64% 0.00 in 784 W/m2
11:04 78.1 °F 66.2 °F 29.82 in SSW 2.0 mph 2.0 mph 67% 0.00 in 803 W/m2
11:10 78.6 °F 66.7 °F 29.82 in South 1.0 mph 1.0 mph 67% 0.00 in 814 W/m2
11:16 79.1 °F 67.2 °F 29.82 in WSW 1.0 mph 4.0 mph 67% 0.00 in 860 W/m2
11:22 78.4 °F 65.2 °F 29.81 in South 1.0 mph 4.0 mph 64% 0.00 in 830 W/m2
11:28 78.4 °F 65.2 °F 29.81 in SSW 3.0 mph 4.0 mph 64% 0.00 in 816 W/m2
11:34 79.4 °F 64.3 °F 29.81 in NNW 2.0 mph 3.0 mph 60% 0.00 in 846 W/m2
11:40 78.7 °F 65.0 °F 29.80 in NNW 2.0 mph 2.0 mph 63% 0.00 in 851 W/m2
11:46 79.4 °F 64.8 °F 29.80 in SSW 1.0 mph 3.0 mph 61% 0.00 in 1044 W/m2
11:52 79.6 °F 67.7 °F 29.80 in SW 1.0 mph 3.0 mph 67% 0.00 in 482 W/m2
11:58 78.8 °F 64.2 °F 29.80 in WSW 1.0 mph 3.0 mph 61% 0.00 in 536 W/m2
12:04 78.4 °F 64.3 °F 29.80 in SSE 1.0 mph 3.0 mph 62% 0.00 in 540 W/m2
12:10 79.3 °F 65.6 °F 29.80 in SW 2.0 mph 2.0 mph 63% 0.00 in 448 W/m2
12:16 79.7 °F 66.4 °F 29.80 in SW 1.0 mph 2.0 mph 64% 0.00 in 642 W/m2
12:22 80.1 °F 65.0 °F 29.80 in Calm     60% 0.00 in 478 W/m2
12:28 79.7 °F 65.1 °F 29.80 in West 1.0 mph 1.0 mph 61% 0.00 in 480 W/m2
12:34 80.2 °F 65.5 °F 29.80 in WNW 1.0 mph 1.0 mph 61% 0.00 in 991 W/m2
12:40 80.7 °F 62.5 °F 29.80 in SW 1.0 mph 6.0 mph 54% 0.00 in 898 W/m2
12:46 81.0 °F 65.3 °F 29.80 in West 2.0 mph 6.0 mph 59% 0.00 in 998 W/m2
12:52 82.0 °F 63.2 °F 29.80 in WNW 1.0 mph 1.0 mph 53% 0.00 in 988 W/m2
12:58 81.2 °F 61.9 °F 29.80 in South 1.0 mph 1.0 mph 52% 0.00 in 598 W/m2
13:04 80.9 °F 62.2 °F 29.80 in SSW 2.0 mph 2.0 mph 53% 0.00 in 599 W/m2
13:10 81.0 °F 63.8 °F 29.80 in SSW 2.0 mph 2.0 mph 56% 0.00 in 1106 W/m2
13:16 81.1 °F 63.9 °F 29.80 in WSW 2.0 mph 4.0 mph 56% 0.00 in 413 W/m2
13:22 81.3 °F 65.1 °F 29.79 in WSW 1.0 mph 2.0 mph 58% 0.00 in 369 W/m2
13:28 82.0 °F 63.7 °F 29.79 in West 1.0 mph 2.0 mph 54% 0.00 in 241 W/m2
13:34 80.9 °F 64.2 °F 29.79 in WSW 1.0 mph 4.0 mph 57% 0.00 in 241 W/m2
13:40 80.6 °F 64.5 °F 29.79 in WSW 1.0 mph 2.0 mph 58% 0.00 in 705 W/m2
13:46 80.7 °F 64.5 °F 29.79 in WSW 1.0 mph 2.0 mph 58% 0.00 in 443 W/m2
13:52 81.1 °F 65.4 °F 29.79 in Calm   1.0 mph 59% 0.00 in 468 W/m2
13:58 80.3 °F 64.2 °F 29.79 in NW 1.0 mph 4.0 mph 58% 0.00 in 241 W/m2
14:04 79.6 °F 65.0 °F 29.79 in NW 1.0 mph 1.0 mph 61% 0.00 in 253 W/m2
14:10 79.5 °F 64.4 °F 29.79 in Calm     60% 0.00 in 329 W/m2
14:16 79.7 °F 65.5 °F 29.79 in Calm     62% 0.00 in 374 W/m2
14:22 79.9 °F 66.2 °F 29.79 in Calm   1.0 mph 63% 0.00 in 564 W/m2
14:28 80.8 °F 67.0 °F 29.79 in West 1.0 mph 1.0 mph 63% 0.00 in 802 W/m2
14:34 81.2 °F 65.5 °F 29.79 in WSW 1.0 mph 1.0 mph 59% 0.00 in 308 W/m2
14:40 80.0 °F 64.4 °F 29.79 in SW 2.0 mph 2.0 mph 59% 0.00 in 290 W/m2
14:46 79.7 °F 65.5 °F 29.80 in SW 2.0 mph 3.0 mph 62% 0.00 in 274 W/m2
14:52 79.6 °F 65.0 °F 29.80 in SW 1.0 mph 3.0 mph 61% 0.00 in 199 W/m2
14:58 79.1 °F 64.5 °F 29.80 in SW 2.0 mph 4.0 mph 61% 0.00 in 160 W/m2
15:04 78.9 °F 64.8 °F 29.80 in SW 1.0 mph 4.0 mph 62% 0.00 in 149 W/m2
15:10 78.7 °F 65.0 °F 29.80 in WSW 2.0 mph 2.0 mph 63% 0.00 in 218 W/m2
15:16 78.7 °F 65.5 °F 29.80 in WSW 1.0 mph 4.0 mph 64% 0.00 in 241 W/m2
15:22 78.7 °F 65.0 °F 29.80 in SW 2.0 mph 2.0 mph 63% 0.00 in 257 W/m2
15:28 78.5 °F 65.3 °F 29.80 in WSW 2.0 mph 7.0 mph 64% 0.00 in 186 W/m2
15:34 78.4 °F 65.7 °F 29.80 in WSW 2.0 mph 3.0 mph 65% 0.00 in 149 W/m2
15:40 78.1 °F 65.4 °F 29.80 in SW 2.0 mph 3.0 mph 65% 0.00 in 118 W/m2
15:46 77.7 °F 65.4 °F 29.80 in WSW 3.0 mph 4.0 mph 66% 0.00 in 163 W/m2
15:52 77.6 °F 66.2 °F 29.80 in SW 2.0 mph 2.0 mph 68% 0.00 in 123 W/m2
15:58 77.4 °F 65.6 °F 29.80 in WSW 1.0 mph 3.0 mph 67% 0.00 in 102 W/m2
16:06 77.0 °F 65.6 °F 29.81 in WSW 2.0 mph 4.0 mph 68% 0.00 in 83 W/m2
16:12 76.6 °F 65.7 °F 29.82 in SSW 3.0 mph 7.0 mph 69% 0.00 in 74 W/m2
16:18 76.0 °F 66.3 °F 29.81 in SW 3.0 mph 7.0 mph 72% 0.00 in 86 W/m2
16:24 75.4 °F 66.5 °F 29.81 in SW 2.0 mph 5.0 mph 74% 0.00 in 121 W/m2
16:30 74.5 °F 65.3 °F 29.81 in WSW 3.0 mph 3.0 mph 73% 0.00 in 109 W/m2
16:36 73.8 °F 63.8 °F 29.81 in SW 3.0 mph 4.0 mph 71% 0.00 in 146 W/m2
16:42 73.4 °F 64.2 °F 29.80 in WSW 3.0 mph 3.0 mph 73% 0.00 in 105 W/m2
16:48 73.2 °F 64.4 °F 29.80 in SW 2.0 mph 4.0 mph 74% 0.00 in 148 W/m2
16:54 73.2 °F 65.2 °F 29.80 in SSW 2.0 mph 4.0 mph 76% 0.00 in 149 W/m2
17:00 73.2 °F 65.2 °F 29.81 in SW 1.0 mph 1.0 mph 76% 0.00 in 192 W/m2
17:06 73.2 °F 65.2 °F 29.81 in Calm   1.0 mph 76% 0.00 in 127 W/m2
17:12 73.0 °F 65.0 °F 29.81 in West 1.0 mph 2.0 mph 76% 0.00 in 100 W/m2
17:18 72.7 °F 64.7 °F 29.81 in WSW 1.0 mph 2.0 mph 76% 0.00 in 127 W/m2
17:24 72.4 °F 64.8 °F 29.81 in SW 3.0 mph 3.0 mph 77% 0.00 in 105 W/m2
17:30 72.1 °F 64.1 °F 29.81 in WSW 3.0 mph 3.0 mph 76% 0.00 in 100 W/m2
17:36 72.0 °F 64.4 °F 29.81 in SW 2.0 mph 6.0 mph 77% 0.00 in 172 W/m2
17:42 72.2 °F 65.0 °F 29.81 in WSW 2.0 mph 2.0 mph 78% 0.00 in 165 W/m2
17:48 72.3 °F 64.7 °F 29.81 in WSW 2.0 mph 3.0 mph 77% 0.00 in 163 W/m2
17:54 72.5 °F 65.2 °F 29.80 in SW 2.0 mph 3.0 mph 78% 0.00 in 151 W/m2
18:00 72.7 °F 65.1 °F 29.81 in SSW 2.0 mph 3.0 mph 77% 0.00 in 156 W/m2
18:06 72.8 °F 65.5 °F 29.81 in SW 3.0 mph 3.0 mph 78% 0.00 in 139 W/m2
18:12 72.9 °F 65.6 °F 29.81 in SW 2.0 mph 2.0 mph 78% 0.00 in 105 W/m2
18:18 73.0 °F 66.1 °F 29.81 in WSW 1.0 mph 3.0 mph 79% 0.00 in 91 W/m2
18:24 73.0 °F 66.1 °F 29.82 in WSW 1.0 mph 1.0 mph 79% 0.00 in 121 W/m2
18:30 73.3 °F 66.4 °F 29.82 in SW 1.0 mph 3.0 mph 79% 0.00 in 109 W/m2
18:36 73.5 °F 66.6 °F 29.82 in SW 1.0 mph 4.0 mph 79% 0.00 in 81 W/m2
18:42 73.7 °F 66.8 °F 29.82 in SW 1.0 mph 1.0 mph 79% 0.00 in 65 W/m2
18:48 73.6 °F 66.7 °F 29.82 in Calm   1.0 mph 79% 0.00 in 58 W/m2
18:54 73.4 °F 66.5 °F 29.83 in WSW 1.0 mph 2.0 mph 79% 0.00 in 56 W/m2
19:00 73.3 °F 66.8 °F 29.83 in Calm     80% 0.00 in 53 W/m2
19:06 73.1 °F 66.6 °F 29.83 in Calm     80% 0.00 in 49 W/m2
19:12 72.8 °F 66.3 °F 29.82 in SW 1.0 mph 2.0 mph 80% 0.00 in 44 W/m2
19:18 72.6 °F 66.4 °F 29.82 in WSW 2.0 mph 2.0 mph 81% 0.00 in 40 W/m2
19:24 72.4 °F 66.2 °F 29.83 in WSW 1.0 mph 3.0 mph 81% 0.00 in 35 W/m2
19:30 72.2 °F 66.4 °F 29.83 in WSW 2.0 mph 2.0 mph 82% 0.00 in 32 W/m2
19:36 71.9 °F 66.1 °F 29.83 in WSW 1.0 mph 2.0 mph 82% 0.00 in 26 W/m2
19:42 71.7 °F 65.9 °F 29.83 in SW 2.0 mph 3.0 mph 82% 0.00 in 21 W/m2
19:48 71.5 °F 66.1 °F 29.83 in WSW 1.0 mph 3.0 mph 83% 0.00 in 18 W/m2
19:54 71.3 °F 65.9 °F 29.83 in WSW 1.0 mph 2.0 mph 83% 0.00 in 12 W/m2
20:00 71.0 °F 65.6 °F 29.83 in WSW 1.0 mph 1.0 mph 83% 0.00 in 9 W/m2
20:06 70.7 °F 65.6 °F 29.83 in WSW 1.0 mph 2.0 mph 84% 0.00 in 5 W/m2
20:12 70.5 °F 65.4 °F 29.83 in WSW 1.0 mph 1.0 mph 84% 0.00 in 0 W/m2
20:18 70.2 °F 65.1 °F 29.83 in Calm   1.0 mph 84% 0.00 in 0 W/m2
20:24 70.0 °F 65.3 °F 29.83 in Calm     85% 0.00 in 0 W/m2
20:30 69.7 °F 65.0 °F 29.83 in Calm   1.0 mph 85% 0.00 in 0 W/m2
20:36 69.4 °F 64.7 °F 29.83 in WSW 1.0 mph 2.0 mph 85% 0.00 in 0 W/m2
20:42 69.2 °F 64.8 °F 29.83 in WSW 1.0 mph 1.0 mph 86% 0.00 in 0 W/m2
20:44 69.2 °F 64.8 °F 29.83 in Calm   1.0 mph 86% 0.00 in 0 W/m2
20:50 68.8 °F 64.4 °F 29.83 in Calm     86% 0.00 in 0 W/m2
20:56 68.6 °F 64.6 °F 29.83 in Calm   1.0 mph 87% 0.00 in 0 W/m2
21:02 68.3 °F 64.3 °F 29.84 in Calm     87% 0.00 in 0 W/m2
21:08 68.2 °F 64.2 °F 29.84 in Calm     87% 0.00 in 0 W/m2
21:14 68.0 °F 64.0 °F 29.85 in Calm     87% 0.00 in 0 W/m2
21:20 67.8 °F 64.1 °F 29.85 in Calm     88% 0.00 in 0 W/m2
21:26 67.7 °F 64.0 °F 29.85 in Calm     88% 0.00 in 0 W/m2
21:32 67.5 °F 63.8 °F 29.85 in Calm     88% 0.00 in 0 W/m2
21:38 67.2 °F 63.8 °F 29.85 in Calm     89% 0.00 in 0 W/m2
21:44 66.9 °F 63.6 °F 29.85 in Calm     89% 0.00 in 0 W/m2
21:50 66.5 °F 63.2 °F 29.85 in Calm     89% 0.00 in 0 W/m2
21:56 66.2 °F 63.2 °F 29.85 in Calm     90% 0.00 in 0 W/m2
22:02 65.9 °F 62.9 °F 29.85 in Calm     90% 0.00 in 0 W/m2
22:08 65.7 °F 62.7 °F 29.85 in Calm     90% 0.00 in 0 W/m2
22:14 65.5 °F 62.8 °F 29.86 in Calm     91% 0.00 in 0 W/m2
22:20 65.2 °F 62.5 °F 29.86 in Calm     91% 0.00 in 0 W/m2
22:26 65.0 °F 62.3 °F 29.85 in Calm     91% 0.00 in 0 W/m2
22:32 64.7 °F 62.0 °F 29.85 in Calm     91% 0.00 in 0 W/m2
22:38 64.6 °F 61.9 °F 29.86 in Calm     91% 0.00 in 0 W/m2
22:44 64.5 °F 61.8 °F 29.86 in Calm     91% 0.00 in 0 W/m2
22:50 64.4 °F 61.7 °F 29.86 in Calm     91% 0.00 in 0 W/m2
22:56 64.3 °F 61.6 °F 29.86 in Calm     91% 0.00 in 0 W/m2
23:02 64.1 °F 61.7 °F 29.86 in Calm     92% 0.00 in 0 W/m2
23:08 63.9 °F 61.5 °F 29.86 in Calm     92% 0.00 in 0 W/m2
23:18 63.8 °F 61.4 °F 29.86 in Calm     92% 0.00 in 0 W/m2
23:24 63.9 °F 61.5 °F 29.86 in Calm     92% 0.00 in 0 W/m2
23:28 63.8 °F 61.4 °F 29.86 in Calm     92% 0.00 in 0 W/m2
23:34 63.8 °F 61.4 °F 29.87 in Calm     92% 0.00 in 0 W/m2
23:36 63.7 °F 61.3 °F 29.88 in Calm     92% 0.00 in 0 W/m2
23:42 63.6 °F 61.2 °F 29.87 in Calm     92% 0.00 in 0 W/m2
23:48 63.5 °F 61.1 °F 29.87 in Calm     92% 0.00 in 0 W/m2
23:54 63.5 °F 61.4 °F 29.87 in Calm     93% 0.00 in 0 W/m2
Country Meadow, Clay, NY, USA
Compliments of Weather Underground - 2 mb